Time;durP1;ratioP1;P1;durP2;ratioP2;P2;SDS_P1;SDS_P2;PMS_P1;PMS_P2;Temp;Humidity;BMP_temperature;BMP_pressure;BME280_temperature;BME280_humidity;BME280_pressure;Samples;Min_cycle;Max_cycle;Signal;HPM_P1;HPM_P2
2021/07/01 00:01:49;;;;;;;0.70;0.60;;;16.70;77.50;;;;;;5016079;28;20037;-79
2021/07/01 00:04:15;;;;;;;0.52;0.50;;;16.70;77.50;;;;;;5034963;28;20122;-80
2021/07/01 00:06:41;;;;;;;0.60;0.50;;;16.70;77.40;;;;;;5051379;28;20027;-80
2021/07/01 00:09:13;;;;;;;1.08;0.60;;;16.70;77.60;;;;;;5015651;28;20041;-80
2021/07/01 00:11:39;;;;;;;0.70;0.60;;;16.60;77.60;;;;;;5015659;28;20064;-80
2021/07/01 00:14:05;;;;;;;0.68;0.60;;;16.70;77.60;;;;;;5015600;28;20034;-79
2021/07/01 00:16:31;;;;;;;0.75;0.60;;;16.60;77.50;;;;;;5029998;28;20085;-80
2021/07/01 00:18:56;;;;;;;0.75;0.63;;;16.60;77.30;;;;;;5035228;28;20046;-79
2021/07/01 00:21:22;;;;;;;0.80;0.70;;;16.60;77.30;;;;;;5028752;28;20108;-80
2021/07/01 00:23:48;;;;;;;0.68;0.60;;;16.60;77.30;;;;;;5015655;28;20022;-80
2021/07/01 00:26:13;;;;;;;0.90;0.60;;;16.70;77.20;;;;;;5015328;28;20068;-79
2021/07/01 00:28:39;;;;;;;0.70;0.70;;;16.60;77.10;;;;;;5015345;28;20042;-79
2021/07/01 00:31:07;;;;;;;0.60;0.60;;;16.60;77.20;;;;;;5015333;28;20085;-79
2021/07/01 00:33:33;;;;;;;0.60;0.50;;;16.50;77.70;;;;;;5015290;28;20060;-80
2021/07/01 00:35:58;;;;;;;0.88;0.70;;;16.40;78.10;;;;;;5015412;28;20022;-79
2021/07/01 00:38:24;;;;;;;0.77;0.60;;;16.40;77.80;;;;;;5015459;28;20026;-80
2021/07/01 00:40:50;;;;;;;0.60;0.50;;;16.40;77.70;;;;;;5016977;28;20508;-80
2021/07/01 00:43:15;;;;;;;0.60;0.50;;;16.40;77.50;;;;;;5019302;28;20034;-79
2021/07/01 00:45:41;;;;;;;0.70;0.60;;;16.40;77.60;;;;;;5019095;28;20029;-79
2021/07/01 00:48:09;;;;;;;0.90;0.70;;;16.30;77.70;;;;;;5018928;28;20148;-78
2021/07/01 00:50:35;;;;;;;0.73;0.60;;;16.30;77.80;;;;;;5038467;28;20021;-79
2021/07/01 00:53:00;;;;;;;0.82;0.73;;;16.30;79.00;;;;;;5045287;28;20021;-79
2021/07/01 00:55:26;;;;;;;0.70;0.63;;;16.30;78.80;;;;;;5045998;28;20022;-79
2021/07/01 00:57:52;;;;;;;1.00;0.82;;;16.30;78.10;;;;;;5038945;28;20032;-80
2021/07/01 01:02:55;;;;;;;1.58;0.70;;;16.20;78.30;;;;;;5029347;28;20038;-79
2021/07/01 01:05:21;;;;;;;0.70;0.60;;;16.30;78.00;;;;;;5019052;28;20052;-80
2021/07/01 01:07:47;;;;;;;0.80;0.70;;;16.20;78.30;;;;;;5018667;28;20026;-79
2021/07/01 01:10:13;;;;;;;0.75;0.60;;;16.20;78.10;;;;;;5019091;28;20113;-79
2021/07/01 01:12:39;;;;;;;0.73;0.60;;;16.20;77.80;;;;;;5018688;28;20081;-79
2021/07/01 01:15:06;;;;;;;0.60;0.60;;;16.20;78.00;;;;;;5018459;28;20447;-79
2021/07/01 01:17:32;;;;;;;0.93;0.80;;;16.20;78.40;;;;;;5018710;28;20030;-79
2021/07/01 01:19:57;;;;;;;0.70;0.65;;;16.20;78.20;;;;;;5033758;28;20523;-79
2021/07/01 01:22:25;;;;;;;0.80;0.70;;;16.30;78.00;;;;;;5031316;28;20108;-79
2021/07/01 01:24:50;;;;;;;0.70;0.60;;;16.30;77.80;;;;;;5030963;28;20061;-79
2021/07/01 01:27:16;;;;;;;0.90;0.68;;;16.20;78.00;;;;;;5018443;28;20030;-79
2021/07/01 01:29:44;;;;;;;0.73;0.70;;;16.30;77.80;;;;;;5017059;28;20045;-79
2021/07/01 01:32:09;;;;;;;0.82;0.70;;;16.20;77.90;;;;;;5018536;28;20516;-79
2021/07/01 01:34:35;;;;;;;0.80;0.70;;;16.20;78.00;;;;;;5018330;28;20022;-79
2021/07/01 01:37:00;;;;;;;0.90;0.80;;;16.20;78.00;;;;;;5018100;28;20140;-79
2021/07/01 01:39:26;;;;;;;0.80;0.70;;;16.30;77.70;;;;;;5018288;28;20025;-79
2021/07/01 01:41:52;;;;;;;0.90;0.70;;;16.20;77.70;;;;;;5017064;28;20026;-79
2021/07/01 01:44:17;;;;;;;0.88;0.70;;;16.20;77.60;;;;;;5016750;28;20029;-79
2021/07/01 01:46:43;;;;;;;0.73;0.60;;;16.20;77.60;;;;;;5018032;28;20045;-79
2021/07/01 01:49:10;;;;;;;0.85;0.70;;;16.20;77.70;;;;;;5016916;28;20030;-79
2021/07/01 01:51:37;;;;;;;1.00;0.80;;;16.10;78.60;;;;;;5017608;28;20026;-79
2021/07/01 01:54:05;;;;;;;0.90;0.70;;;16.10;78.80;;;;;;5044595;28;20387;-79
2021/07/01 01:56:37;;;;;;;0.98;0.88;;;16.10;79.00;;;;;;5019481;28;20017;-79
2021/07/01 01:59:04;;;;;;;0.70;0.70;;;16.10;79.20;;;;;;5024410;28;20080;-79
2021/07/01 02:01:30;;;;;;;1.05;0.85;;;16.20;78.80;;;;;;5018583;28;20033;-79
2021/07/01 02:03:57;;;;;;;0.80;0.80;;;16.20;78.80;;;;;;5017916;28;20036;-79
2021/07/01 02:06:22;;;;;;;0.90;0.80;;;16.20;79.90;;;;;;5017865;28;20033;-79
2021/07/01 02:08:48;;;;;;;0.73;0.73;;;16.20;79.20;;;;;;5017683;28;20030;-79
2021/07/01 02:11:13;;;;;;;0.90;0.75;;;16.20;79.00;;;;;;5017572;28;20037;-79
2021/07/01 02:13:39;;;;;;;0.80;0.70;;;16.20;78.80;;;;;;5017437;28;20061;-79
2021/07/01 02:16:05;;;;;;;0.90;0.80;;;16.00;79.20;;;;;;5017458;28;20037;-79
2021/07/01 02:18:31;;;;;;;0.90;0.80;;;16.10;78.90;;;;;;5019204;28;20570;-79
2021/07/01 02:20:56;;;;;;;0.70;0.63;;;16.10;78.90;;;;;;5037276;28;20340;-79
2021/07/01 02:23:22;;;;;;;0.82;0.80;;;16.00;79.20;;;;;;5029062;28;20037;-79
2021/07/01 02:25:48;;;;;;;0.80;0.70;;;15.90;79.40;;;;;;5017439;28;20540;-79
2021/07/01 02:28:13;;;;;;;0.70;0.68;;;15.80;79.70;;;;;;5017267;28;20026;-79
2021/07/01 02:30:39;;;;;;;0.60;0.60;;;15.80;79.20;;;;;;5017132;28;20382;-79
2021/07/01 02:33:05;;;;;;;0.80;0.70;;;15.80;78.80;;;;;;5026599;28;20500;-79
2021/07/01 02:35:32;;;;;;;0.82;0.73;;;15.90;78.50;;;;;;5015802;28;20070;-79
2021/07/01 02:37:58;;;;;;;1.38;0.90;;;15.90;78.10;;;;;;5023302;28;20021;-79
2021/07/01 02:40:24;;;;;;;0.90;0.82;;;15.80;78.50;;;;;;5036908;28;20032;-79
2021/07/01 02:42:49;;;;;;;1.00;0.90;;;15.70;78.90;;;;;;5016832;28;20469;-79
2021/07/01 02:45:15;;;;;;;0.65;0.60;;;15.70;79.30;;;;;;5016693;28;20066;-79
2021/07/01 02:47:43;;;;;;;1.33;0.80;;;15.70;79.20;;;;;;5017053;28;20061;-79
2021/07/01 02:50:10;;;;;;;0.68;0.68;;;15.70;79.30;;;;;;5031759;28;20090;-79
2021/07/01 02:52:36;;;;;;;0.98;0.80;;;15.70;79.10;;;;;;5021454;28;20025;-79
2021/07/01 02:55:04;;;;;;;0.95;0.85;;;15.70;79.00;;;;;;5056534;28;20136;-79
2021/07/01 02:57:29;;;;;;;1.00;0.90;;;15.70;78.80;;;;;;5056434;28;20021;-79
2021/07/01 02:59:55;;;;;;;1.00;0.90;;;15.80;78.90;;;;;;5025050;28;20041;-79
2021/07/01 03:02:21;;;;;;;0.95;0.77;;;15.80;78.80;;;;;;5016187;28;20134;-79
2021/07/01 03:04:49;;;;;;;0.90;0.80;;;15.70;79.20;;;;;;5016199;28;20040;-79
2021/07/01 03:07:15;;;;;;;0.70;0.70;;;15.70;79.20;;;;;;5016691;28;20160;-79
2021/07/01 03:09:40;;;;;;;0.90;0.60;;;15.70;79.10;;;;;;5016343;28;20104;-79
2021/07/01 03:12:07;;;;;;;0.63;0.50;;;15.70;79.00;;;;;;5016678;28;20032;-79
2021/07/01 03:14:32;;;;;;;0.80;0.47;;;15.70;78.90;;;;;;5016377;28;20591;-79
2021/07/01 03:16:58;;;;;;;0.60;0.50;;;15.70;78.90;;;;;;5016294;28;20100;-79
2021/07/01 03:19:24;;;;;;;0.70;0.50;;;15.70;78.80;;;;;;5016483;28;20049;-79
2021/07/01 03:21:49;;;;;;;0.63;0.50;;;15.70;78.60;;;;;;5016352;28;20041;-79
2021/07/01 03:24:16;;;;;;;0.63;0.50;;;15.60;78.70;;;;;;5015395;28;20045;-79
2021/07/01 03:26:41;;;;;;;1.02;0.57;;;15.50;78.40;;;;;;5016423;28;20498;-79
2021/07/01 03:29:08;;;;;;;0.63;0.50;;;15.50;78.70;;;;;;5016202;28;20117;-79
2021/07/01 03:31:34;;;;;;;0.82;0.50;;;15.50;78.60;;;;;;5016221;28;20022;-79
2021/07/01 03:33:59;;;;;;;0.52;0.50;;;15.50;78.50;;;;;;5031269;28;20424;-79
2021/07/01 03:36:25;;;;;;;1.05;0.40;;;15.50;78.20;;;;;;5016192;28;20472;-79
2021/07/01 03:38:53;;;;;;;0.40;0.40;;;15.50;78.30;;;;;;5014839;28;20148;-79
2021/07/01 03:41:19;;;;;;;0.47;0.40;;;15.50;78.20;;;;;;5014826;28;20026;-79
2021/07/01 03:43:49;;;;;;;0.40;0.40;;;15.50;78.20;;;;;;5016008;28;20089;-79
2021/07/01 03:46:15;;;;;;;0.40;0.40;;;15.50;78.20;;;;;;5016000;28;20029;-79
2021/07/01 03:48:41;;;;;;;0.50;0.40;;;15.50;78.10;;;;;;5015728;28;20042;-79
2021/07/01 03:51:07;;;;;;;0.40;0.40;;;15.50;78.10;;;;;;5016004;28;20560;-79
2021/07/01 03:53:33;;;;;;;0.47;0.40;;;15.40;78.00;;;;;;5037489;28;20036;-79
2021/07/01 03:55:59;;;;;;;0.40;0.40;;;15.30;78.30;;;;;;5046135;28;20030;-79
2021/07/01 03:58:25;;;;;;;0.30;0.30;;;15.30;78.30;;;;;;5015825;28;20033;-79
2021/07/01 04:00:51;;;;;;;0.32;0.30;;;15.30;78.20;;;;;;5015330;28;20105;-79
2021/07/01 04:03:16;;;;;;;0.50;0.40;;;15.20;78.10;;;;;;5015740;28;20026;-79
2021/07/01 04:05:42;;;;;;;0.50;0.50;;;15.20;78.10;;;;;;5014441;28;20026;-79
2021/07/01 04:08:08;;;;;;;0.40;0.40;;;15.20;78.20;;;;;;5015668;28;20029;-80
2021/07/01 04:10:33;;;;;;;0.40;0.40;;;15.10;78.10;;;;;;5014366;28;20519;-79
2021/07/01 04:12:59;;;;;;;0.40;0.40;;;15.10;78.30;;;;;;5015689;28;20058;-79
2021/07/01 04:15:25;;;;;;;0.30;0.30;;;15.20;78.00;;;;;;5015259;28;20037;-80
2021/07/01 04:17:51;;;;;;;0.43;0.40;;;15.10;78.10;;;;;;5015357;28;20037;-80
2021/07/01 04:20:17;;;;;;;0.60;0.40;;;15.00;77.80;;;;;;5030669;28;20041;-79
2021/07/01 04:22:43;;;;;;;0.50;0.40;;;15.00;77.80;;;;;;5015425;28;20034;-79
2021/07/01 04:25:09;;;;;;;0.60;0.45;;;15.00;77.90;;;;;;5013978;28;20033;-79
2021/07/01 04:27:35;;;;;;;0.35;0.35;;;15.00;78.00;;;;;;5015473;28;20060;-79
2021/07/01 04:30:01;;;;;;;0.40;0.40;;;15.00;78.10;;;;;;5015461;28;20373;-80
2021/07/01 04:32:26;;;;;;;0.32;0.30;;;14.90;78.00;;;;;;5015580;28;20064;-80
2021/07/01 04:34:52;;;;;;;0.50;0.40;;;14.90;78.20;;;;;;5018755;28;20361;-80
2021/07/01 04:37:18;;;;;;;0.50;0.50;;;14.90;78.20;;;;;;5035309;28;20065;-79
2021/07/01 04:39:44;;;;;;;0.40;0.40;;;15.00;78.10;;;;;;5035136;28;20022;-79
2021/07/01 04:42:09;;;;;;;0.47;0.40;;;15.00;77.90;;;;;;5035107;28;20033;-79
2021/07/01 04:44:35;;;;;;;0.60;0.40;;;15.10;77.70;;;;;;5019536;28;20030;-82
2021/07/01 04:47:01;;;;;;;0.43;0.40;;;15.00;77.60;;;;;;5015580;28;20034;-81
2021/07/01 04:49:27;;;;;;;0.30;0.30;;;15.00;77.80;;;;;;5015524;28;20033;-79
2021/07/01 04:51:52;;;;;;;0.68;0.40;;;15.00;77.90;;;;;;5015225;28;20101;-81
2021/07/01 04:54:18;;;;;;;0.35;0.30;;;15.10;77.80;;;;;;5049474;28;20522;-79
2021/07/01 04:56:45;;;;;;;0.40;0.40;;;15.10;77.50;;;;;;5054940;28;20034;-80
2021/07/01 04:59:15;;;;;;;0.40;0.40;;;15.20;77.50;;;;;;5036533;28;20030;-80
2021/07/01 05:01:41;;;;;;;0.50;0.40;;;15.20;77.20;;;;;;5015232;28;20213;-80
2021/07/01 05:04:09;;;;;;;0.43;0.40;;;15.20;77.30;;;;;;5018400;28;20057;-81
2021/07/01 05:06:35;;;;;;;0.40;0.40;;;15.10;78.00;;;;;;5035025;28;20026;-83
2021/07/01 05:09:02;;;;;;;0.40;0.40;;;14.80;78.40;;;;;;5033589;28;20035;-81
2021/07/01 05:11:28;;;;;;;0.35;0.30;;;14.90;78.50;;;;;;5035027;28;20032;-81
2021/07/01 05:13:53;;;;;;;0.40;0.40;;;14.80;79.00;;;;;;5033799;28;20022;-82
2021/07/01 05:16:19;;;;;;;0.52;0.40;;;14.90;79.00;;;;;;5035003;28;20068;-83
2021/07/01 05:18:45;;;;;;;0.40;0.35;;;14.90;79.10;;;;;;5020226;28;20046;-86
2021/07/01 05:21:10;;;;;;;0.38;0.38;;;15.00;79.20;;;;;;5015267;28;20036;-86
2021/07/01 05:23:36;;;;;;;0.40;0.40;;;15.00;78.70;;;;;;5015189;28;20403;-88
2021/07/01 05:26:02;;;;;;;0.40;0.40;;;15.00;78.90;;;;;;5023631;28;20741;-88
2021/07/01 05:28:27;;;;;;;0.40;0.38;;;15.10;78.80;;;;;;5019169;28;20045;-89
2021/07/01 05:30:53;;;;;;;0.50;0.40;;;15.20;78.60;;;;;;5018910;28;20079;-87
2021/07/01 05:33:19;;;;;;;0.40;0.40;;;15.30;78.40;;;;;;5019396;28;20040;-87
2021/07/01 05:35:45;;;;;;;0.30;0.30;;;15.30;78.50;;;;;;5029383;28;20029;-88
2021/07/01 05:38:11;;;;;;;0.40;0.30;;;15.30;78.20;;;;;;5037003;28;20029;-85
2021/07/01 05:40:37;;;;;;;0.50;0.40;;;15.40;78.40;;;;;;5037812;28;20178;-87
2021/07/01 05:43:03;;;;;;;0.40;0.40;;;15.40;78.20;;;;;;5022985;28;20021;-88
2021/07/01 05:45:29;;;;;;;0.40;0.40;;;15.40;78.50;;;;;;5037946;28;20033;-89
2021/07/01 05:47:54;;;;;;;0.52;0.40;;;15.50;78.20;;;;;;5038680;28;20388;-90
2021/07/01 05:50:27;;;;;;;0.40;0.40;;;15.50;78.10;;;;;;5026509;28;20026;-90
2021/07/01 05:53:00;;;;;;;0.40;0.40;;;15.60;78.30;;;;;;5038952;28;20096;-88
2021/07/01 05:55:26;;;;;;;0.43;0.40;;;15.50;78.60;;;;;;5058671;28;20036;-87
2021/07/01 05:57:51;;;;;;;0.40;0.38;;;15.60;79.40;;;;;;5050602;28;20018;-81
2021/07/01 06:03:18;;;;;;;0.40;0.40;;;15.60;78.60;;;;;;5060011;28;20462;-81
2021/07/01 06:05:46;;;;;;;0.40;0.40;;;15.50;79.20;;;;;;5052643;28;20090;-78
2021/07/01 06:08:13;;;;;;;0.30;0.30;;;15.50;79.70;;;;;;5052713;28;20057;-76
2021/07/01 06:10:42;;;;;;;0.45;0.40;;;15.60;79.50;;;;;;5068156;28;20781;-78
2021/07/01 06:13:09;;;;;;;0.40;0.40;;;15.70;79.30;;;;;;5052635;28;20033;-80
2021/07/01 06:15:35;;;;;;;0.40;0.30;;;15.80;78.70;;;;;;5052677;28;20101;-82
2021/07/01 06:18:08;;;;;;;0.30;0.30;;;15.90;78.30;;;;;;5052408;28;20060;-85
2021/07/01 06:20:34;;;;;;;0.30;0.30;;;16.00;78.30;;;;;;5056101;28;20025;-85
2021/07/01 06:23:00;;;;;;;0.40;0.38;;;16.00;78.00;;;;;;5072205;28;20039;-89
2021/07/01 06:25:28;;;;;;;0.43;0.40;;;16.10;78.10;;;;;;5059419;28;20029;-85
2021/07/01 06:28:39;;;;;;;;;;;;;;;;;;;;;
2021/07/01 06:31:21;;;;;;;0.30;0.30;;;16.10;79.00;;;;;;5052449;28;20104;-86
2021/07/01 06:33:54;;;;;;;0.30;0.30;;;16.20;78.70;;;;;;5052269;28;20426;-85
2021/07/01 06:36:24;;;;;;;0.30;0.30;;;16.20;78.80;;;;;;5055195;28;20013;-78
2021/07/01 06:39:07;;;;;;;;;;;;;;;;;;;;;
2021/07/01 06:41:43;;;;;;;0.40;0.30;;;16.30;78.40;;;;;;5075719;28;20517;-91
2021/07/01 06:44:11;;;;;;;0.30;0.30;;;16.40;78.50;;;;;;5067107;28;20529;-89
2021/07/01 06:46:41;;;;;;;0.30;0.30;;;16.50;79.80;;;;;;5051326;28;20036;-90
2021/07/01 06:49:07;;;;;;;0.35;0.30;;;16.50;79.20;;;;;;5052535;28;20493;-86
2021/07/01 06:51:42;;;;;;;0.40;0.30;;;16.60;80.80;;;;;;5066019;28;20141;-83
2021/07/01 06:54:39;;;;;;;0.50;0.40;;;16.60;81.10;;;;;;5070048;28;20032;-87
2021/07/01 06:57:05;;;;;;;0.60;0.50;;;16.60;81.00;;;;;;5058582;28;20033;-87
2021/07/01 06:59:35;;;;;;;0.70;0.40;;;16.80;80.10;;;;;;5073099;28;20028;-87
2021/07/01 07:02:05;;;;;;;0.50;0.50;;;16.80;80.10;;;;;;5066029;28;20065;-89
2021/07/01 07:04:56;;;;;;;0.50;0.40;;;16.90;81.10;;;;;;5076669;28;20035;-86
2021/07/01 07:07:31;;;;;;;0.40;0.30;;;17.00;79.30;;;;;;5069364;28;20024;-87
2021/07/01 07:10:06;;;;;;;0.40;0.40;;;17.10;80.40;;;;;;5067068;28;20394;-88
2021/07/01 07:12:48;;;;;;;0.50;0.40;;;17.20;79.70;;;;;;5062842;28;20121;-87
2021/07/01 07:15:26;;;;;;;0.50;0.40;;;17.20;79.20;;;;;;5052592;28;20040;-84
2021/07/01 07:17:54;;;;;;;0.40;0.40;;;17.30;79.40;;;;;;5050123;28;20506;-87
2021/07/01 07:20:22;;;;;;;0.50;0.40;;;17.40;78.60;;;;;;5037483;28;20022;-87
2021/07/01 07:22:49;;;;;;;0.50;0.47;;;17.50;78.10;;;;;;5035977;28;20056;-86
2021/07/01 07:25:15;;;;;;;0.38;0.35;;;17.60;77.50;;;;;;5036670;28;20030;-86
2021/07/01 07:27:55;;;;;;;0.43;0.43;;;17.70;77.90;;;;;;5035009;28;20028;-86
2021/07/01 07:30:24;;;;;;;0.40;0.40;;;18.20;77.10;;;;;;5036286;28;20467;-87
2021/07/01 07:32:51;;;;;;;0.38;0.30;;;19.20;74.40;;;;;;5035751;28;20441;-87
2021/07/01 07:35:16;;;;;;;0.40;0.30;;;21.90;65.10;;;;;;5035328;28;20044;-87
2021/07/01 07:37:43;;;;;;;0.10;0.10;;;23.70;59.40;;;;;;5036269;28;20109;-88
2021/07/01 07:40:09;;;;;;;0.10;0.10;;;26.30;51.10;;;;;;5037282;28;20021;-88
2021/07/01 07:42:35;;;;;;;0.45;0.20;;;28.30;46.20;;;;;;5039528;28;20553;-88
2021/07/01 07:45:01;;;;;;;0.10;0.10;;;29.80;42.90;;;;;;5037338;28;20053;-88
2021/07/01 07:47:29;;;;;;;0.20;0.10;;;30.90;40.30;;;;;;5037053;28;20030;-88
2021/07/01 07:49:57;;;;;;;0.08;0.08;;;31.90;37.00;;;;;;5042561;28;20033;-85
2021/07/01 07:52:25;;;;;;;0.15;0.10;;;32.20;35.70;;;;;;5057425;28;20043;-86
2021/07/01 07:54:54;;;;;;;0.10;0.10;;;33.20;36.40;;;;;;5075655;28;20518;-86
2021/07/01 07:57:28;;;;;;;0.20;0.10;;;34.00;34.60;;;;;;5075999;28;20046;-86
2021/07/01 07:59:57;;;;;;;0.35;0.10;;;34.80;33.50;;;;;;5061372;28;20434;-86
2021/07/01 08:02:42;;;;;;;0.10;0.10;;;35.00;31.80;;;;;;5057754;28;20101;-90
2021/07/01 08:05:08;;;;;;;0.10;0.10;;;35.50;31.30;;;;;;5056176;28;20059;-90
2021/07/01 08:07:37;;;;;;;0.32;0.10;;;35.40;31.10;;;;;;5038570;28;20100;-89
2021/07/01 08:10:08;;;;;;;0.10;0.10;;;35.90;29.80;;;;;;5053780;28;20036;-90
2021/07/01 08:12:38;;;;;;;0.10;0.10;;;36.20;29.50;;;;;;5038779;28;20537;-90
2021/07/01 08:15:04;;;;;;;0.20;0.10;;;36.40;29.50;;;;;;5038249;28;20079;-92
2021/07/01 08:17:31;;;;;;;0.10;0.10;;;36.40;29.10;;;;;;5051420;28;20033;-90
2021/07/01 08:19:57;;;;;;;0.10;0.10;;;36.80;28.30;;;;;;5058363;28;20079;-90
2021/07/01 08:22:23;;;;;;;0.10;0.10;;;36.80;27.50;;;;;;5043049;28;20496;-91
2021/07/01 08:24:51;;;;;;;0.30;0.10;;;37.00;28.80;;;;;;5036069;28;20030;-90
2021/07/01 08:27:18;;;;;;;0.10;0.10;;;37.10;28.10;;;;;;5038317;28;20403;-90
2021/07/01 08:29:45;;;;;;;0.10;0.10;;;37.20;27.80;;;;;;5053023;28;20071;-92
2021/07/01 08:32:15;;;;;;;0.10;0.10;;;37.20;28.80;;;;;;5049602;28;20033;-90
2021/07/01 08:34:43;;;;;;;0.22;0.10;;;37.30;29.10;;;;;;5036847;28;20438;-90
2021/07/01 08:37:09;;;;;;;0.08;0.08;;;37.10;28.50;;;;;;5038462;28;20741;-94
2021/07/01 08:39:36;;;;;;;0.10;0.10;;;37.10;28.60;;;;;;5037182;28;20025;-91
2021/07/01 08:42:07;;;;;;;0.20;0.10;;;36.90;27.80;;;;;;5036850;28;20080;-92
2021/07/01 08:44:45;;;;;;;0.10;0.10;;;36.90;29.00;;;;;;5051887;28;20021;-91
2021/07/01 08:47:19;;;;;;;0.32;0.20;;;36.80;28.10;;;;;;5054078;28;20037;-91
2021/07/01 08:49:56;;;;;;;0.30;0.10;;;36.50;28.40;;;;;;5053595;28;20025;-92
2021/07/01 08:52:33;;;;;;;0.20;0.10;;;36.00;29.70;;;;;;5038225;28;20446;-90
2021/07/01 08:55:07;;;;;;;0.20;0.10;;;36.70;29.00;;;;;;5043127;28;20486;-92
2021/07/01 08:57:37;;;;;;;0.10;0.10;;;36.60;29.30;;;;;;5066181;28;20037;-92
2021/07/01 09:00:14;;;;;;;0.28;0.10;;;36.70;29.20;;;;;;5068199;28;20038;-92
2021/07/01 09:03:11;;;;;;;0.40;0.10;;;36.90;28.90;;;;;;5041928;28;20046;-92
2021/07/01 09:05:44;;;;;;;0.10;0.10;;;36.80;28.50;;;;;;5048849;28;20030;-93
2021/07/01 09:08:12;;;;;;;0.30;0.10;;;36.80;28.90;;;;;;5044862;28;20109;-91
2021/07/01 09:10:38;;;;;;;;;;;36.90;28.10;;;;;;5045461;28;20009;-89
2021/07/01 09:13:08;;;;;;;0.10;0.10;;;36.90;28.10;;;;;;5045188;28;19909;-90
2021/07/01 09:15:36;;;;;;;0.13;0.10;;;36.90;28.40;;;;;;5040319;28;20033;-89
2021/07/01 09:18:02;;;;;;;0.10;0.10;;;36.50;29.10;;;;;;5053082;28;20031;-89
2021/07/01 09:20:36;;;;;;;0.10;0.10;;;36.90;28.30;;;;;;5039806;28;20087;-90
2021/07/01 09:23:04;;;;;;;0.20;0.05;;;36.80;28.40;;;;;;5050756;28;20494;-94
2021/07/01 09:25:30;;;;;;;0.30;0.10;;;36.00;29.10;;;;;;5046718;28;20025;-92
2021/07/01 09:27:57;;;;;;;0.35;0.10;;;36.40;29.70;;;;;;5047939;28;20021;-93
2021/07/01 09:30:26;;;;;;;0.10;0.10;;;36.90;27.70;;;;;;5040689;28;20018;-89
2021/07/01 09:32:57;;;;;;;0.15;0.10;;;37.10;28.90;;;;;;5044087;28;20506;-93
2021/07/01 09:35:25;;;;;;;0.17;0.10;;;37.10;26.40;;;;;;5050837;28;20087;-93
2021/07/01 09:37:52;;;;;;;;;;;37.40;27.60;;;;;;5050423;28;20120;-93
2021/07/01 09:40:19;;;;;;;0.10;0.10;;;37.50;26.20;;;;;;5040469;28;20086;-92
2021/07/01 09:43:01;;;;;;;0.10;0.10;;;37.40;26.30;;;;;;5038752;28;20021;-93
2021/07/01 09:45:27;;;;;;;0.17;0.08;;;37.70;27.00;;;;;;5051613;28;20025;-93
2021/07/01 09:48:09;;;;;;;0.00;0.00;;;37.60;28.40;;;;;;5050636;28;20560;-91
2021/07/01 09:50:45;;;;;;;0.30;0.10;;;36.40;27.60;;;;;;5048948;28;20029;-91
2021/07/01 09:53:31;;;;;;;0.10;0.10;;;34.60;30.80;;;;;;5044610;28;20029;-90
2021/07/01 09:56:02;;;;;;;0.50;0.30;;;34.80;30.70;;;;;;5044901;28;20021;-89
2021/07/01 09:58:49;;;;;;;0.28;0.10;;;35.60;29.90;;;;;;5045682;28;20067;-89
2021/07/01 10:01:37;;;;;;;0.40;0.17;;;36.40;29.50;;;;;;5048937;28;20538;-88
2021/07/01 10:04:03;;;;;;;;;;;36.10;30.00;;;;;;5051223;28;20546;-88
2021/07/01 10:06:29;;;;;;;0.20;0.10;;;34.50;30.20;;;;;;5045877;28;19921;-88
2021/07/01 10:08:55;;;;;;;0.10;0.10;;;34.20;31.00;;;;;;5051830;28;20025;-88
2021/07/01 10:11:33;;;;;;;0.30;0.10;;;33.00;33.10;;;;;;5047525;28;20029;-88
2021/07/01 10:14:02;;;;;;;0.10;0.10;;;31.90;36.10;;;;;;5054219;28;20052;-87
2021/07/01 10:16:29;;;;;;;;;;;31.50;36.10;;;;;;5041671;28;20387;-88
2021/07/01 10:18:57;;;;;;;0.30;0.13;;;31.70;36.40;;;;;;5052125;28;19905;-88
2021/07/01 10:21:27;;;;;;;0.30;0.20;;;32.50;34.60;;;;;;5046120;28;20033;-88
2021/07/01 10:24:11;;;;;;;0.10;0.10;;;33.00;34.90;;;;;;5038780;28;20032;-89
2021/07/01 10:26:42;;;;;;;0.20;0.20;;;34.10;33.40;;;;;;5048479;28;20028;-88
2021/07/01 10:29:08;;;;;;;0.10;0.10;;;35.10;32.30;;;;;;5048380;28;20021;-89
2021/07/01 10:31:57;;;;;;;1.50;1.20;;;35.10;31.00;;;;;;5052713;28;20428;-88
2021/07/01 10:34:25;;;;;;;0.40;0.10;;;35.10;32.20;;;;;;5044907;28;20143;-88
2021/07/01 10:37:10;;;;;;;0.20;0.10;;;34.70;33.30;;;;;;5046087;28;20021;-88
2021/07/01 10:39:38;;;;;;;0.20;0.13;;;34.90;31.60;;;;;;5054373;28;20487;-89
2021/07/01 10:42:04;;;;;;;0.30;0.10;;;34.80;31.50;;;;;;5046922;28;20040;-88
2021/07/01 10:44:31;;;;;;;0.15;0.10;;;33.80;32.10;;;;;;5036715;28;20022;-89
2021/07/01 10:46:57;;;;;;;0.75;0.10;;;33.00;34.00;;;;;;5038494;28;20024;-88
2021/07/01 10:49:36;;;;;;;0.10;0.00;;;32.90;34.40;;;;;;5054190;28;20091;-88
2021/07/01 10:52:05;;;;;;;0.10;0.10;;;32.50;35.80;;;;;;5057150;28;20017;-88
2021/07/01 10:54:31;;;;;;;1.75;0.10;;;31.80;36.70;;;;;;5055117;28;20040;-87
2021/07/01 10:57:09;;;;;;;0.20;0.10;;;31.30;35.80;;;;;;5047381;28;20037;-88
2021/07/01 10:59:53;;;;;;;0.35;0.10;;;30.60;39.60;;;;;;5036859;28;20856;-88
2021/07/01 11:02:30;;;;;;;0.47;0.10;;;30.30;38.50;;;;;;5056565;28;20053;-88
2021/07/01 11:05:00;;;;;;;0.10;0.10;;;30.30;38.60;;;;;;5051716;28;20518;-87
2021/07/01 11:07:27;;;;;;;0.40;0.20;;;30.40;39.80;;;;;;5048376;28;20013;-88
2021/07/01 11:09:56;;;;;;;0.10;0.00;;;30.50;37.80;;;;;;5041826;28;20032;-89
2021/07/01 11:12:26;;;;;;;0.20;0.10;;;30.30;37.90;;;;;;5050820;28;20487;-88
2021/07/01 11:14:55;;;;;;;0.30;0.10;;;30.00;40.50;;;;;;5054034;28;20025;-89
2021/07/01 11:17:50;;;;;;;0.20;0.10;;;29.90;40.50;;;;;;5055979;28;20617;-89
2021/07/01 11:20:20;;;;;;;0.32;0.10;;;30.00;40.10;;;;;;5056595;28;20045;-88
2021/07/01 11:22:57;;;;;;;0.20;0.10;;;30.00;40.50;;;;;;5056230;28;20017;-90
2021/07/01 11:25:36;;;;;;;0.10;0.10;;;30.00;39.80;;;;;;5046688;28;20838;-89
2021/07/01 11:28:31;;;;;;;0.10;0.10;;;30.00;41.20;;;;;;5050359;28;20483;-91
2021/07/01 11:31:02;;;;;;;0.70;0.15;;;29.90;40.40;;;;;;5052029;28;20025;-93
2021/07/01 11:33:29;;;;;;;0.10;0.10;;;29.70;41.40;;;;;;5058151;28;20039;-91
2021/07/01 11:36:15;;;;;;;0.77;0.20;;;29.40;40.90;;;;;;5049179;28;20021;-91
2021/07/01 11:38:42;;;;;;;0.20;0.10;;;29.30;41.20;;;;;;5056697;28;20078;-92
2021/07/01 11:41:08;;;;;;;0.20;0.10;;;29.00;40.60;;;;;;5049486;28;20021;-93
2021/07/01 11:43:37;;;;;;;0.10;0.10;;;28.90;39.90;;;;;;5049376;28;20025;-93
2021/07/01 11:46:04;;;;;;;0.20;0.10;;;29.10;40.60;;;;;;5047215;28;20021;-93
2021/07/01 11:48:31;;;;;;;0.63;0.10;;;29.40;43.10;;;;;;5052886;28;20048;-91
2021/07/01 11:51:00;;;;;;;0.20;0.15;;;29.60;41.70;;;;;;5056299;28;20048;-92
2021/07/01 11:53:26;;;;;;;0.20;0.10;;;29.50;41.00;;;;;;5050579;28;20021;-93
2021/07/01 11:55:57;;;;;;;0.20;0.10;;;29.30;41.60;;;;;;5049711;28;20403;-91
2021/07/01 11:58:23;;;;;;;0.22;0.10;;;29.20;40.30;;;;;;5046827;28;20116;-91
2021/07/01 12:00:49;;;;;;;0.32;0.20;;;29.30;41.40;;;;;;5043766;28;20436;-91
2021/07/01 12:03:16;;;;;;;0.20;0.10;;;29.50;41.60;;;;;;5055007;28;20032;-90
2021/07/01 12:05:51;;;;;;;0.10;0.10;;;29.70;41.10;;;;;;5044466;28;20025;-91
2021/07/01 12:08:18;;;;;;;0.10;0.10;;;29.40;42.40;;;;;;5047434;28;20024;-91
2021/07/01 12:10:44;;;;;;;0.28;0.10;;;29.00;42.50;;;;;;5052938;28;20461;-92
2021/07/01 12:13:31;;;;;;;0.17;0.10;;;29.10;42.10;;;;;;5047922;28;20140;-92
2021/07/01 12:16:06;;;;;;;0.10;0.10;;;29.00;41.60;;;;;;5056243;28;20029;-92
2021/07/01 12:18:44;;;;;;;0.20;0.10;;;28.90;40.50;;;;;;5039309;28;20032;-92
2021/07/01 12:21:31;;;;;;;0.10;0.10;;;28.90;41.80;;;;;;5055593;28;20025;-94
2021/07/01 12:23:58;;;;;;;0.10;0.10;;;28.80;42.20;;;;;;5057069;28;20499;-93
2021/07/01 12:26:43;;;;;;;0.17;0.10;;;28.90;41.20;;;;;;5050050;28;20108;-92
2021/07/01 12:29:20;;;;;;;0.57;0.20;;;29.20;39.80;;;;;;5039481;28;20026;-91
2021/07/01 12:31:46;;;;;;;0.10;0.10;;;29.30;40.20;;;;;;5050471;28;20090;-90
2021/07/01 12:34:18;;;;;;;0.10;0.10;;;29.50;40.50;;;;;;5055995;28;20390;-92
2021/07/01 12:36:47;;;;;;;0.08;0.08;;;29.90;41.60;;;;;;5052468;28;20026;-94
2021/07/01 12:39:17;;;;;;;0.10;0.10;;;29.50;41.90;;;;;;5055043;28;20029;-92
2021/07/01 12:41:53;;;;;;;0.10;0.10;;;29.20;41.70;;;;;;5056181;28;20440;-92
2021/07/01 12:44:19;;;;;;;0.20;0.10;;;28.90;42.00;;;;;;5043003;28;20029;-95
2021/07/01 12:46:45;;;;;;;0.13;0.10;;;28.40;42.90;;;;;;5044967;28;20112;-94
2021/07/01 12:52:01;;;;;;;0.15;0.10;;;28.30;43.00;;;;;;5055020;28;20021;-94
2021/07/01 12:54:30;;;;;;;0.10;0.10;;;28.20;43.30;;;;;;5051390;28;20017;-93
2021/07/01 12:56:56;;;;;;;0.10;0.10;;;28.00;42.10;;;;;;5044356;28;20029;-94
2021/07/01 12:59:27;;;;;;;0.40;0.20;;;27.90;43.40;;;;;;5043759;28;20136;-93
2021/07/01 13:01:56;;;;;;;0.20;0.10;;;28.00;44.20;;;;;;5049510;28;20055;-92
2021/07/01 13:04:26;;;;;;;0.67;0.10;;;28.00;42.90;;;;;;5054813;28;20108;-93
2021/07/01 13:06:57;;;;;;;0.17;0.08;;;28.10;44.10;;;;;;5056383;28;20017;-86
2021/07/01 13:09:40;;;;;;;0.15;0.10;;;28.10;43.30;;;;;;5050663;28;20052;-85